GPS DATA

i Aug 17 09:52:33 2018 DO7EA (4044) RX_Slot=2,GROUP=4044,USER_ID=2621315,TYPE=Voice,VERS=9.37,RPTR=901005,DL-Master ,01081 S:9
i Aug 17 09:52:33 2018 DO7EA (4044) RX_Slot=2,GROUP=4044,USER_ID=2621315,TYPE=Voice,VERS=9.37,RPTR=901005,DL-Master ,01081 S:9
i Aug 17 09:52:33 2018 DO7EA (4044) RX_Slot=2,GROUP=4044,USER_ID=2621315,TYPE=Voice,VERS=9.37,RPTR=901005,DL-Master ,01081 S:9
i Aug 17 09:52:33 2018 DO7EA (4044) RX_Slot=2,GROUP=4044,USER_ID=2621315,TYPE=Voice,VERS=9.37,RPTR=901005,DL-Master ,01081 S:9
Fri Aug 17 15:39:19 2018 APRS[DL7GCW-7]Decoded GPS Auto: LAT(N4741.723) LONG(E00859.57) SPEED(0.0) RPT:262807
Fri Aug 17 15:46:26 2018 APRS[DO9JM-5]Decoded GPS Auto: LAT(N4735.728) LONG(E00935.90) SPEED(0.1) RPT:262807
Fri Aug 17 16:15:02 2018 APRS[DJ7TF-7]Decoded GPS Auto: LAT(N4737.841) LONG(E00944.86) SPEED(41.) RPT:262807
Fri Aug 17 16:15:07 2018 APRS[DJ7TF-7]Decoded GPS Auto: LAT(N4738.220) LONG(E00945.47) SPEED(.22) RPT:262807
Fri Aug 17 16:15:09 2018 APRS[DJ7TF-7]Decoded GPS Auto: LAT(N4738.220) LONG(E00945.44) SPEED(28.) RPT:262807
Fri Aug 17 16:15:11 2018 APRS[DJ7TF-7]Decoded GPS Auto: LAT(N4738.676) LONG(E00945.87) SPEED(38.) RPT:262807
Fri Aug 17 16:40:11 2018 APRS[DJ7TF-7]Decoded GPS Auto: LAT(N4737.685) LONG(E00942.41) SPEED(3.1) RPT:262807
Fri Aug 17 16:40:14 2018 APRS[DJ7TF-7]Decoded GPS Auto: LAT(N4737.685) LONG(E00942.41) SPEED(3.1) RPT:262807
Fri Aug 17 16:41:31 2018 APRS[DJ7TF-7]Decoded GPS Auto: LAT(N4737.687) LONG(E00942.41) SPEED(0.0) RPT:262807
Fri Aug 17 16:41:35 2018 APRS[DJ7TF-7]Decoded GPS Auto: LAT(N4737.687) LONG(E00942.41) SPEED(0.0) RPT:262807
Fri Aug 17 17:11:39 2018 APRS[DO9JM-5]Decoded GPS Auto: LAT(N4735.733) LONG(E00935.88) SPEED(0.0) RPT:262807
Fri Aug 17 17:25:11 2018 APRS[DO9JM-5]Decoded GPS Auto: LAT(N4735.727) LONG(E00935.87) SPEED(0.0) RPT:262807
Fri Aug 17 17:25:30 2018 APRS[DJ7TF-7]Decoded GPS Auto: LAT(N4737.685) LONG(E00942.41) SPEED(0.0) RPT:262807
Fri Aug 17 17:25:33 2018 APRS[DJ7TF-7]Decoded GPS Auto: LAT(N4737.685) LONG(E00942.41) SPEED(0.0) RPT:262807
Fri Aug 17 17:25:36 2018 APRS[DJ7TF-7]Decoded GPS Auto: LAT(N4737.684) LONG(E00942.41) SPEED(0.6) RPT:262807
Fri Aug 17 17:25:40 2018 APRS[DJ7TF-7]Decoded GPS Auto: LAT(N4737.684) LONG(E00942.41) SPEED(0.1) RPT:262807
Fri Aug 17 17:25:42 2018 APRS[DJ7TF-7]Decoded GPS Auto: LAT(N4737.684) LONG(E00942.41) SPEED(0.1) RPT:262807
Sat Aug 18 15:30:06 2018 APRS[DH7EW-7]Decoded GPS Auto: LAT(N5220.784) LONG(E01435.04) SPEED(0.0) RPT:262101
Sat Aug 18 15:30:09 2018 APRS[DH7EW-7]Decoded GPS Auto: LAT(N5220.784) LONG(E01435.04) SPEED(0.0) RPT:262101
i Aug 17 09:52:37 2018 DO7EA (4044) RX_Slot=2,GROUP=4044,USER_ID=2621315,TYPE=Voice,VERS=9.37,RPTR=901005,DL-Master ,01081 S:9
i Aug 17 09:52:37 2018 DO7EA (4044) RX_Slot=2,GROUP=4044,USER_ID=2621315,TYPE=Voice,VERS=9.37,RPTR=901005,DL-Master ,01081 S:9
i Aug 17 09:52:37 2018 DO7EA (4044) RX_Slot=2,GROUP=4044,USER_ID=2621315,TYPE=Voice,VERS=9.37,RPTR=901005,DL-Master ,01081 S:9
i Aug 17 09:52:38 2018 DO7EA (4044) RX_Slot=2,GROUP=4044,USER_ID=2621315,TYPE=Voice,VERS=9.37,RPTR=901005,DL-Master ,01081 S:9
i Aug 17 09:52:38 2018 DO7EA (4044) RX_Slot=2,GROUP=4044,USER_ID=2621315,TYPE=Voice,VERS=9.37,RPTR=901005,DL-Master ,01081 S:9
i Aug 17 09:52:38 2018 DO7EA (4044) RX_Slot=2,GROUP=4044,USER_ID=2621315,TYPE=Voice,VERS=9.37,RPTR=901005,DL-Master ,01081 S:9
i Aug 17 09:52:39 2018 DO7EA (4044) RX_Slot=2,GROUP=4044,USER_ID=2621315,TYPE=Voice,VERS=9.37,RPTR=901005,DL-Master ,01081 S:9